Flight Number: EUR1439 Duration: 3:00
Departure: Amsterdam Schiphol (EHAM) at 08:15 Distance: 1106 Nm
Arrival: Skiathos (LGSK) at 11:15 Equipment: B737

Weather Information
Amsterdam Airport Schiphol, Netherlands (EHAM) 52-18N 004-46E -2M Feb 21, 2018 - 11:25 AM EST / 2018.02.21 1625 UTC
Wind: from the NNE (030 degrees) at 13 MPH (11 KT):0
Visibility: 5 mile(s):0
Sky conditions: mostly clear Temperature: 37 F (3 C) Dew Point: 26 F (-3 C) Relative Humidity: 64% Pressure (altimeter): 30.27 in. Hg (1025 hPa)
ob: EHAM 211625Z 03011KT 9000 FEW026 03/M03 Q1025 NOSIG cycle: 16
Sunrise: 06:47 Sunset: 17:01 (UTC)

Skiathos Island, Greece (LGSK) 39-11N 023-30E Feb 21, 2018 - 10:50 AM EST / 2018.02.21 1550 UTC
Wind: from the NNE (030 degrees) at 12 MPH (10 KT):0
Visibility: greater than 7 mile(s):0
Sky conditions: mostly cloudy Temperature: 55 F (13 C) Dew Point: 48 F (9 C) Relative Humidity: 76% Pressure (altimeter): 29.74 in. Hg (1007 hPa)
ob: LGSK 211550Z 03010KT 9999 SCT008 BKN025 13/09 Q1007 cycle: 16
Sunrise: 05:12 Sunset: 16:06 (UTC)

TAF:2012/09/27 00:18 TAF LGSK 272300Z 2800/2909 01010KT 9999 FEW020

Previous Pireps for this route
Date Aircraft Flight time Fuel used Landing rate On time
2014-10-10B7372.52184140Yes
2015-10-12B73702.5225727-364No
2017-02-21B7373.1023104-304No
(pireps marked green are flown by you)

Route map